createdAt,value
2024-03-24T00:01:25.667Z,88.90
2024-03-24T00:03:53.645Z,88.32
2024-03-24T00:06:21.034Z,88.30
2024-03-24T00:08:52.761Z,87.89
2024-03-24T00:11:20.249Z,88.82
2024-03-24T00:13:47.940Z,88.58
2024-03-24T00:16:17.434Z,88.58
2024-03-24T00:18:45.122Z,88.94
2024-03-24T00:21:14.094Z,88.74
2024-03-24T00:23:41.875Z,88.76
2024-03-24T00:26:12.223Z,88.77
2024-03-24T00:28:39.697Z,89.22
2024-03-24T00:31:07.467Z,89.13
2024-03-24T00:33:34.909Z,89.66
2024-03-24T00:36:02.411Z,89.67
2024-03-24T00:38:29.971Z,89.70
2024-03-24T00:40:57.363Z,89.51
2024-03-24T00:43:41.286Z,89.08
2024-03-24T00:46:09.487Z,89.76
2024-03-24T00:48:37.149Z,89.47
2024-03-24T00:51:05.587Z,90.08
2024-03-24T00:53:33.604Z,89.34
2024-03-24T00:56:01.393Z,89.41
2024-03-24T00:58:29.415Z,89.43
2024-03-24T01:00:59.354Z,90.57
2024-03-24T01:03:27.042Z,90.36
2024-03-24T01:05:55.339Z,89.85
2024-03-24T01:08:22.838Z,90.14
2024-03-24T01:10:50.836Z,90.46
2024-03-24T01:13:18.250Z,89.85
2024-03-24T01:15:46.389Z,89.77
2024-03-24T01:18:16.319Z,89.56
2024-03-24T01:20:43.764Z,89.76
2024-03-24T01:23:11.414Z,89.37
2024-03-24T01:25:48.143Z,90.27
2024-03-24T01:28:15.931Z,90.30
2024-03-24T01:30:44.556Z,90.61
2024-03-24T01:33:11.996Z,91.34
2024-03-24T01:35:48.770Z,90.93
2024-03-24T01:38:18.517Z,90.17
2024-03-24T01:40:49.613Z,90.10
2024-03-24T01:43:17.751Z,89.97
2024-03-24T01:45:51.087Z,90.98
2024-03-24T01:48:18.886Z,90.38
2024-03-24T01:50:51.706Z,91.37
2024-03-24T01:53:21.532Z,90.87
2024-03-24T01:55:49.131Z,91.09
2024-03-24T01:58:17.016Z,90.42
2024-03-24T02:01:00.744Z,90.27
2024-03-24T02:03:28.828Z,90.47
2024-03-24T02:05:59.582Z,90.28
2024-03-24T02:08:30.005Z,89.99
2024-03-24T02:10:58.981Z,90.17
2024-03-24T02:13:27.158Z,89.46
2024-03-24T02:15:55.234Z,90.51
2024-03-24T02:18:23.636Z,91.17
2024-03-24T02:20:51.781Z,91.05
2024-03-24T02:23:22.096Z,91.94
2024-03-24T02:25:49.574Z,92.17
2024-03-24T02:28:17.889Z,91.77
2024-03-24T02:30:45.604Z,92.45
2024-03-24T02:33:14.142Z,92.88
2024-03-24T02:35:43.344Z,93.07
2024-03-24T02:38:10.754Z,92.21
2024-03-24T02:40:41.246Z,92.06
2024-03-24T02:43:09.629Z,92.32
2024-03-24T02:45:37.069Z,91.35
2024-03-24T02:48:06.044Z,91.28
2024-03-24T02:50:33.405Z,91.74
2024-03-24T02:53:01.298Z,91.66
2024-03-24T02:55:28.663Z,93.08
2024-03-24T02:57:58.538Z,92.34
2024-03-24T03:00:25.984Z,92.46
2024-03-24T03:02:53.737Z,92.46
2024-03-24T03:05:21.085Z,92.16
2024-03-24T03:07:48.481Z,92.01
2024-03-24T03:10:16.131Z,92.28
2024-03-24T03:12:43.749Z,92.35
2024-03-24T03:15:16.977Z,92.60
2024-03-24T03:17:44.435Z,93.12
2024-03-24T03:20:15.275Z,92.99
2024-03-24T03:22:42.717Z,93.48
2024-03-24T03:25:24.112Z,93.70
2024-03-24T03:27:52.397Z,93.27
2024-03-24T03:30:23.324Z,93.83
2024-03-24T03:32:52.455Z,93.82
2024-03-24T03:35:19.927Z,94.31
2024-03-24T03:37:47.318Z,94.15
2024-03-24T03:40:15.694Z,94.12
2024-03-24T03:42:43.092Z,94.07
2024-03-24T03:45:12.116Z,94.22
2024-03-24T03:47:42.485Z,94.21
2024-03-24T03:50:14.904Z,94.41
2024-03-24T03:52:48.626Z,94.54
2024-03-24T03:55:16.842Z,94.41
2024-03-24T03:57:44.998Z,94.63
2024-03-24T04:00:27.807Z,94.87
2024-03-24T04:02:59.516Z,95.12
2024-03-24T04:05:27.055Z,95.17
2024-03-24T04:07:54.451Z,95.33
2024-03-24T04:10:21.805Z,95.73
2024-03-24T04:12:49.156Z,95.38
2024-03-24T04:15:16.601Z,94.96
2024-03-24T04:17:44.571Z,95.20
2024-03-24T04:20:15.629Z,95.43
2024-03-24T04:22:44.814Z,95.01
2024-03-24T04:25:13.637Z,95.77
2024-03-24T04:27:41.660Z,95.39
2024-03-24T04:30:09.880Z,95.30
2024-03-24T04:32:37.300Z,95.28
2024-03-24T04:35:09.523Z,95.39
2024-03-24T04:37:40.156Z,95.31
2024-03-24T04:40:10.132Z,95.23
2024-03-24T04:42:45.374Z,95.67
2024-03-24T04:45:13.524Z,95.24
2024-03-24T04:47:42.207Z,95.24
2024-03-24T04:50:10.066Z,95.70
2024-03-24T04:52:44.460Z,95.37
2024-03-24T04:55:13.469Z,95.37
2024-03-24T04:57:41.518Z,95.46
2024-03-24T05:00:11.724Z,95.46
2024-03-24T05:02:39.147Z,95.76
2024-03-24T05:05:09.130Z,96.07
2024-03-24T05:07:36.859Z,95.67
2024-03-24T05:10:08.915Z,95.75
2024-03-24T05:12:36.859Z,95.41
2024-03-24T05:15:06.237Z,95.69
2024-03-24T05:17:34.061Z,95.55
2024-03-24T05:20:01.417Z,96.16
2024-03-24T05:22:28.780Z,96.60
2024-03-24T05:25:00.063Z,96.63
2024-03-24T05:27:30.648Z,96.74
2024-03-24T05:29:58.574Z,96.75
2024-03-24T05:32:25.983Z,96.44
2024-03-24T05:34:54.738Z,97.15
2024-03-24T05:37:22.180Z,97.07
2024-03-24T05:39:49.670Z,97.17
2024-03-24T05:42:17.079Z,97.38
2024-03-24T05:44:46.965Z,97.66
2024-03-24T05:47:15.368Z,97.80
2024-03-24T05:49:42.982Z,97.87
2024-03-24T05:52:10.369Z,97.19
2024-03-24T05:54:37.926Z,96.98
2024-03-24T05:57:05.975Z,96.86
2024-03-24T05:59:34.647Z,97.78
2024-03-24T06:02:05.117Z,97.51
2024-03-24T06:04:32.993Z,97.09
2024-03-24T06:07:16.658Z,97.12
2024-03-24T06:09:44.229Z,97.23
2024-03-24T06:12:11.617Z,97.33
2024-03-24T06:14:39.167Z,97.36
2024-03-24T06:17:09.068Z,97.27
2024-03-24T06:19:36.895Z,96.85
2024-03-24T06:22:04.870Z,96.96
2024-03-24T06:24:32.658Z,96.97
2024-03-24T06:27:01.467Z,97.20
2024-03-24T06:29:29.031Z,97.95
2024-03-24T06:31:56.407Z,97.46
2024-03-24T06:34:26.340Z,97.28
2024-03-24T06:36:54.019Z,97.13
2024-03-24T06:39:21.405Z,97.16
2024-03-24T06:41:51.061Z,97.49
2024-03-24T06:44:19.392Z,97.44
2024-03-24T06:46:46.915Z,97.69
2024-03-24T06:49:22.771Z,98.24
2024-03-24T06:51:52.942Z,97.51
2024-03-24T06:54:20.392Z,97.18
2024-03-24T06:56:47.843Z,96.87
2024-03-24T06:59:15.465Z,96.69
2024-03-24T07:01:42.954Z,96.83
2024-03-24T07:04:10.282Z,97.20
2024-03-24T07:06:37.953Z,97.31
2024-03-24T07:09:08.158Z,97.55
2024-03-24T07:11:35.616Z,97.35
2024-03-24T07:14:02.998Z,97.42
2024-03-24T07:16:36.344Z,97.38
2024-03-24T07:19:04.078Z,97.37
2024-03-24T07:21:31.498Z,97.09
2024-03-24T07:23:58.887Z,97.17
2024-03-24T07:26:33.399Z,97.50
2024-03-24T07:29:01.017Z,97.66
2024-03-24T07:31:35.249Z,96.79
2024-03-24T07:34:02.927Z,96.86
2024-03-24T07:36:33.355Z,96.79
2024-03-24T07:39:00.775Z,96.75
2024-03-24T07:41:31.043Z,95.57
2024-03-24T07:43:58.768Z,93.55
2024-03-24T07:46:32.788Z,92.87
2024-03-24T07:49:00.194Z,92.59
2024-03-24T07:51:28.113Z,92.73
2024-03-24T07:53:56.522Z,92.97
2024-03-24T07:56:24.429Z,93.28
2024-03-24T07:58:57.230Z,92.77
2024-03-24T08:01:25.046Z,91.79
2024-03-24T08:03:53.406Z,90.99
2024-03-24T08:06:20.808Z,91.64
2024-03-24T08:08:48.205Z,90.95
2024-03-24T08:11:16.760Z,90.02
2024-03-24T08:13:52.480Z,90.62
2024-03-24T08:16:22.867Z,90.65
2024-03-24T08:18:50.279Z,90.88
2024-03-24T08:21:17.687Z,90.98
2024-03-24T08:23:45.071Z,91.19
2024-03-24T08:26:13.690Z,91.10
2024-03-24T08:28:41.143Z,90.86
2024-03-24T08:31:08.982Z,90.70
2024-03-24T08:33:38.846Z,91.60
2024-03-24T08:36:08.835Z,91.80
2024-03-24T08:38:36.211Z,91.09
2024-03-24T08:41:03.802Z,91.38
2024-03-24T08:43:31.203Z,91.33
2024-03-24T08:45:58.594Z,91.23
2024-03-24T08:48:30.824Z,91.06
2024-03-24T08:51:04.996Z,91.23
2024-03-24T08:53:32.555Z,91.41
2024-03-24T08:56:07.880Z,91.57
2024-03-24T08:58:35.310Z,91.24
2024-03-24T09:01:04.530Z,90.73
2024-03-24T09:03:31.918Z,90.98
2024-03-24T09:05:59.662Z,90.87
2024-03-24T09:08:29.564Z,91.10
2024-03-24T09:10:58.494Z,90.98
2024-03-24T09:13:26.012Z,91.30
2024-03-24T09:15:53.759Z,91.53
2024-03-24T09:18:21.151Z,92.11
2024-03-24T09:20:48.652Z,92.72
2024-03-24T09:23:17.362Z,92.10
2024-03-24T09:25:47.404Z,92.90
2024-03-24T09:28:15.922Z,92.70
2024-03-24T09:30:43.322Z,92.49
2024-03-24T09:33:10.738Z,92.27
2024-03-24T09:35:39.117Z,92.24
2024-03-24T09:38:12.558Z,91.90
2024-03-24T09:40:43.075Z,92.37
2024-03-24T09:43:13.984Z,92.38
2024-03-24T09:45:41.614Z,92.45
2024-03-24T09:48:14.513Z,93.27
2024-03-24T09:50:43.372Z,93.37
2024-03-24T09:53:14.667Z,93.56
2024-03-24T09:55:42.749Z,93.32
2024-03-24T09:58:15.902Z,92.81
2024-03-24T10:00:45.250Z,92.60
2024-03-24T10:03:15.377Z,92.41
2024-03-24T10:05:43.986Z,92.60
2024-03-24T10:08:11.712Z,92.54
2024-03-24T10:10:39.140Z,92.99
2024-03-24T10:16:20.044Z,94.84
2024-03-24T10:18:47.970Z,95.16
2024-03-24T10:21:17.104Z,94.73
2024-03-24T10:23:45.686Z,93.77
2024-03-24T10:26:19.444Z,93.24
2024-03-24T10:28:47.902Z,91.96
2024-03-24T10:31:16.620Z,91.45
2024-03-24T10:33:46.982Z,91.47
2024-03-24T10:36:15.334Z,91.24
2024-03-24T10:38:43.891Z,91.15
2024-03-24T10:41:40.256Z,90.99
2024-03-24T10:44:17.828Z,91.71
2024-03-24T10:46:50.013Z,92.50
2024-03-24T10:49:22.646Z,92.90
2024-03-24T10:51:50.909Z,94.43
2024-03-24T10:54:20.226Z,92.77
2024-03-24T10:56:49.087Z,91.92
2024-03-24T10:59:21.469Z,92.35
2024-03-24T11:01:49.473Z,92.37
2024-03-24T11:04:17.020Z,89.71
2024-03-24T11:06:48.189Z,86.69
2024-03-24T11:09:34.608Z,85.74
2024-03-24T11:12:13.280Z,83.21
2024-03-24T11:14:43.502Z,82.68
2024-03-24T11:17:11.036Z,82.25
2024-03-24T11:19:47.656Z,82.97
2024-03-24T11:22:22.613Z,86.11
2024-03-24T11:24:55.550Z,87.43
2024-03-24T11:27:29.572Z,86.87
2024-03-24T11:29:59.679Z,87.34
2024-03-24T11:32:51.816Z,86.50
2024-03-24T11:35:20.468Z,85.95
2024-03-24T11:37:55.972Z,84.92
2024-03-24T11:40:26.963Z,83.48
2024-03-24T11:42:57.665Z,84.92
2024-03-24T11:45:29.996Z,83.70
2024-03-24T11:48:32.432Z,84.71
2024-03-24T11:51:05.202Z,87.12
2024-03-24T11:53:36.950Z,87.29
2024-03-24T11:56:07.498Z,88.05
2024-03-24T11:58:41.821Z,88.48
2024-03-24T12:01:10.147Z,86.18
2024-03-24T12:03:40.922Z,87.13
2024-03-24T12:06:09.975Z,86.65
2024-03-24T12:08:47.282Z,87.07
2024-03-24T12:11:19.548Z,86.63
2024-03-24T12:13:47.421Z,85.08
2024-03-24T12:16:20.428Z,84.59
2024-03-24T12:18:47.852Z,84.48
2024-03-24T12:21:20.613Z,83.86
2024-03-24T12:23:50.581Z,83.94
2024-03-24T12:26:20.585Z,82.95
2024-03-24T12:28:54.221Z,83.34
2024-03-24T12:31:21.834Z,83.51
2024-03-24T12:33:58.696Z,83.02
2024-03-24T12:36:26.778Z,85.01
2024-03-24T12:38:57.108Z,85.78
2024-03-24T12:41:24.789Z,86.63
2024-03-24T12:43:54.261Z,87.47
2024-03-24T12:46:26.374Z,87.76
2024-03-24T12:48:54.262Z,87.95
2024-03-24T12:51:22.609Z,88.26
2024-03-24T12:53:55.186Z,88.36
2024-03-24T12:56:26.284Z,87.27
2024-03-24T12:58:57.872Z,87.74
2024-03-24T13:01:27.257Z,87.35
2024-03-24T13:03:58.780Z,87.84
2024-03-24T13:06:32.038Z,87.99
2024-03-24T13:09:16.444Z,88.55
2024-03-24T13:11:46.892Z,88.91
2024-03-24T13:14:14.703Z,88.83
2024-03-24T13:16:49.622Z,88.64
2024-03-24T13:19:25.282Z,89.32
2024-03-24T13:21:58.234Z,90.09
2024-03-24T13:24:31.378Z,90.38
2024-03-24T13:27:09.195Z,91.80
2024-03-24T13:29:36.592Z,92.14
2024-03-24T13:32:05.004Z,92.05
2024-03-24T13:34:32.738Z,91.12
2024-03-24T13:37:13.405Z,90.93
2024-03-24T13:39:55.555Z,89.70
2024-03-24T13:42:43.391Z,89.91
2024-03-24T13:45:24.760Z,89.79
2024-03-24T13:48:06.362Z,90.19
2024-03-24T13:50:37.954Z,89.68
2024-03-24T13:53:08.655Z,91.01
2024-03-24T13:55:36.073Z,91.85
2024-03-24T13:58:21.174Z,92.57
2024-03-24T14:00:49.879Z,92.92
2024-03-24T14:03:18.048Z,92.80
2024-03-24T14:05:45.785Z,93.15
2024-03-24T14:08:14.784Z,93.19
2024-03-24T14:10:44.488Z,92.88
2024-03-24T14:13:32.786Z,92.27
2024-03-24T14:16:18.606Z,92.39
2024-03-24T14:18:56.374Z,92.06
2024-03-24T14:21:33.343Z,93.02
2024-03-24T14:24:12.498Z,93.27
2024-03-24T14:26:40.052Z,92.90
2024-03-24T14:29:09.935Z,93.82
2024-03-24T14:31:37.359Z,93.37
2024-03-24T14:34:04.768Z,92.43
2024-03-24T14:36:45.291Z,93.27
2024-03-24T14:39:29.212Z,92.76
2024-03-24T14:42:00.266Z,92.80
2024-03-24T14:44:50.994Z,90.78
2024-03-24T14:47:43.681Z,90.21
2024-03-24T14:50:11.506Z,89.84
2024-03-24T14:52:39.137Z,90.64
2024-03-24T14:55:07.480Z,90.93
2024-03-24T14:57:35.050Z,91.79
2024-03-24T15:00:14.465Z,91.76
2024-03-24T15:02:42.403Z,92.07
2024-03-24T15:05:11.211Z,91.35
2024-03-24T15:07:38.748Z,91.34
2024-03-24T15:10:09.564Z,91.64
2024-03-24T15:12:39.082Z,91.92
2024-03-24T15:15:09.770Z,92.17
2024-03-24T15:17:38.755Z,92.47
2024-03-24T15:20:09.773Z,92.65
2024-03-24T15:22:37.647Z,91.49
2024-03-24T15:25:09.422Z,91.63
2024-03-24T15:27:37.112Z,91.76
2024-03-24T15:30:08.610Z,90.87
2024-03-24T15:32:36.108Z,90.90
2024-03-24T15:35:05.106Z,91.42
2024-03-24T15:37:32.560Z,91.54
2024-03-24T15:40:00.269Z,91.08
2024-03-24T15:42:27.770Z,90.53
2024-03-24T15:44:55.258Z,90.41
2024-03-24T15:47:25.306Z,89.71
2024-03-24T15:49:53.769Z,89.82
2024-03-24T15:52:21.675Z,88.91
2024-03-24T15:54:49.022Z,90.02
2024-03-24T15:57:30.242Z,90.64
2024-03-24T16:00:04.184Z,90.64
2024-03-24T16:02:36.727Z,90.89
2024-03-24T16:05:06.837Z,91.14
2024-03-24T16:07:40.289Z,91.29
2024-03-24T16:10:31.432Z,90.93
2024-03-24T16:13:18.519Z,90.77
2024-03-24T16:15:45.936Z,90.59
2024-03-24T16:18:16.265Z,90.96
2024-03-24T16:21:03.708Z,90.71
2024-03-24T16:23:33.691Z,91.14
2024-03-24T16:26:00.958Z,91.14
2024-03-24T16:28:29.119Z,90.74
2024-03-24T16:30:58.806Z,89.92
2024-03-24T16:33:29.523Z,90.12
2024-03-24T16:35:58.385Z,89.21
2024-03-24T16:38:26.062Z,89.11
2024-03-24T16:40:54.892Z,89.17
2024-03-24T16:43:23.434Z,89.84
2024-03-24T16:45:50.929Z,89.74
2024-03-24T16:48:19.015Z,90.52
2024-03-24T16:50:49.380Z,90.81
2024-03-24T16:53:17.105Z,90.35
2024-03-24T16:55:45.991Z,89.95
2024-03-24T16:58:16.802Z,90.14
2024-03-24T17:00:44.231Z,90.45
2024-03-24T17:03:11.747Z,90.28
2024-03-24T17:05:41.370Z,90.56
2024-03-24T17:08:11.264Z,90.85
2024-03-24T17:10:41.317Z,90.53
2024-03-24T17:13:09.859Z,90.88
2024-03-24T17:15:37.335Z,90.83
2024-03-24T17:18:05.037Z,90.82
2024-03-24T17:20:32.336Z,90.99
2024-03-24T17:23:00.174Z,91.24
2024-03-24T17:25:30.150Z,90.63
2024-03-24T17:27:57.712Z,91.01
2024-03-24T17:30:30.159Z,90.87
2024-03-24T17:32:58.030Z,90.78
2024-03-24T17:35:25.364Z,91.04
2024-03-24T17:37:52.740Z,91.77
2024-03-24T17:40:20.507Z,91.81
2024-03-24T17:42:50.496Z,91.72
2024-03-24T17:45:18.018Z,91.25
2024-03-24T17:47:46.623Z,91.28
2024-03-24T17:50:17.530Z,91.14
2024-03-24T17:52:45.685Z,91.50
2024-03-24T17:55:13.363Z,91.66
2024-03-24T17:57:40.791Z,91.24
2024-03-24T18:00:12.837Z,91.56
2024-03-24T18:02:40.533Z,91.29
2024-03-24T18:05:11.250Z,91.07
2024-03-24T18:07:58.355Z,91.18
2024-03-24T18:10:27.156Z,90.90
2024-03-24T18:12:54.722Z,91.28
2024-03-24T18:15:24.649Z,91.32
2024-03-24T18:17:52.105Z,91.42
2024-03-24T18:20:19.601Z,91.33
2024-03-24T18:22:48.427Z,91.25
2024-03-24T18:25:18.587Z,91.52
2024-03-24T18:27:46.410Z,91.24
2024-03-24T18:30:14.665Z,91.70
2024-03-24T18:32:47.567Z,91.92
2024-03-24T18:35:15.179Z,91.52
2024-03-24T18:37:44.940Z,91.28
2024-03-24T18:40:13.533Z,91.11
2024-03-24T18:42:40.932Z,91.58
2024-03-24T18:45:09.114Z,91.15
2024-03-24T18:47:37.567Z,90.92
2024-03-24T18:50:08.610Z,91.10
2024-03-24T18:52:37.360Z,90.93
2024-03-24T18:55:05.316Z,91.57
2024-03-24T18:57:33.197Z,91.17
2024-03-24T19:00:00.628Z,91.86
2024-03-24T19:02:28.285Z,92.70
2024-03-24T19:04:56.095Z,92.69
2024-03-24T19:07:25.975Z,92.49
2024-03-24T19:09:53.446Z,92.39
2024-03-24T19:12:20.903Z,92.62
2024-03-24T19:14:49.735Z,92.17
2024-03-24T19:17:17.115Z,91.97
2024-03-24T19:19:44.515Z,91.58
2024-03-24T19:22:12.893Z,91.54
2024-03-24T19:24:43.023Z,91.57
2024-03-24T19:27:10.408Z,91.42
2024-03-24T19:29:37.801Z,91.19
2024-03-24T19:32:05.663Z,90.97
2024-03-24T19:34:33.050Z,91.54
2024-03-24T19:37:00.446Z,91.41
2024-03-24T19:39:28.498Z,91.76
2024-03-24T19:41:58.649Z,92.04
2024-03-24T19:44:26.201Z,92.35
2024-03-24T19:46:53.806Z,92.32
2024-03-24T19:49:22.137Z,92.30
2024-03-24T19:51:49.694Z,91.89
2024-03-24T19:54:17.070Z,91.66
2024-03-24T19:56:44.810Z,92.08
2024-03-24T19:59:15.518Z,91.96
2024-03-24T20:01:43.089Z,91.75
2024-03-24T20:04:10.460Z,91.92
2024-03-24T20:06:37.883Z,92.07
2024-03-24T20:09:07.131Z,91.84
2024-03-24T20:11:34.577Z,91.77
2024-03-24T20:14:01.985Z,91.76
2024-03-24T20:16:31.901Z,91.33
2024-03-24T20:18:59.581Z,90.89
2024-03-24T20:21:27.029Z,91.20
2024-03-24T20:23:54.847Z,91.14
2024-03-24T20:26:22.813Z,91.39
2024-03-24T20:28:50.139Z,91.35
2024-03-24T20:31:17.574Z,91.14
2024-03-24T20:33:47.566Z,91.01
2024-03-24T20:36:15.411Z,91.08
2024-03-24T20:38:44.787Z,90.62
2024-03-24T20:41:13.859Z,90.70
2024-03-24T20:43:42.550Z,90.62
2024-03-24T20:46:10.495Z,90.48
2024-03-24T20:48:38.438Z,90.70
2024-03-24T20:51:08.692Z,90.58
2024-03-24T20:53:36.204Z,90.61
2024-03-24T20:56:04.560Z,91.09
2024-03-24T20:58:33.683Z,90.74
2024-03-24T21:01:01.151Z,91.22
2024-03-24T21:03:28.713Z,91.52
2024-03-24T21:05:57.211Z,91.65
2024-03-24T21:08:28.814Z,92.32
2024-03-24T21:10:56.442Z,91.75
2024-03-24T21:13:23.941Z,91.38
2024-03-24T21:15:51.667Z,91.17
2024-03-24T21:18:19.099Z,91.24
2024-03-24T21:20:46.645Z,90.94
2024-03-24T21:23:14.379Z,90.88
2024-03-24T21:25:44.292Z,90.86
2024-03-24T21:28:13.799Z,91.25
2024-03-24T21:30:42.934Z,90.90
2024-03-24T21:33:10.662Z,90.97
2024-03-24T21:35:38.024Z,91.39
2024-03-24T21:38:24.519Z,91.45
2024-03-24T21:41:13.426Z,91.24
2024-03-24T21:43:40.959Z,91.10
2024-03-24T21:46:08.317Z,91.50
2024-03-24T21:48:36.436Z,91.33
2024-03-24T21:51:04.380Z,91.58
2024-03-24T21:53:33.839Z,91.15
2024-03-24T21:56:06.343Z,90.96
2024-03-24T21:58:33.810Z,91.26
2024-03-24T22:01:01.199Z,91.23
2024-03-24T22:03:28.863Z,91.04
2024-03-24T22:05:56.467Z,91.09
2024-03-24T22:10:56.249Z,91.12
2024-03-24T22:13:26.264Z,91.35
2024-03-24T22:15:53.688Z,91.31
2024-03-24T22:18:22.742Z,91.06
2024-03-24T22:20:50.836Z,91.25
2024-03-24T22:23:18.590Z,91.45
2024-03-24T22:25:46.032Z,91.75
2024-03-24T22:28:13.736Z,91.57
2024-03-24T22:30:43.654Z,91.63
2024-03-24T22:33:12.364Z,91.43
2024-03-24T22:35:40.239Z,91.44
2024-03-24T22:38:07.957Z,91.27
2024-03-24T22:40:36.069Z,91.63
2024-03-24T22:43:03.919Z,91.18
2024-03-24T22:45:31.354Z,90.98
2024-03-24T22:48:01.393Z,91.18
2024-03-24T22:50:28.957Z,90.96
2024-03-24T22:52:56.700Z,90.96
2024-03-24T22:55:24.013Z,90.86
2024-03-24T22:57:53.850Z,90.97
2024-03-24T23:00:24.295Z,90.74
2024-03-24T23:02:51.702Z,90.58
2024-03-24T23:05:22.691Z,90.64
2024-03-24T23:07:50.885Z,90.83
2024-03-24T23:10:18.266Z,90.63
2024-03-24T23:12:47.105Z,90.68
2024-03-24T23:15:14.392Z,90.72
2024-03-24T23:17:41.824Z,90.66
2024-03-24T23:20:12.545Z,90.88
2024-03-24T23:22:42.553Z,91.04
2024-03-24T23:25:10.831Z,91.09
2024-03-24T23:27:38.568Z,90.82
2024-03-24T23:30:09.290Z,91.23
2024-03-24T23:32:36.732Z,91.50
2024-03-24T23:35:04.528Z,91.25
2024-03-24T23:37:31.864Z,91.57
2024-03-24T23:40:01.796Z,91.49
2024-03-24T23:42:29.246Z,91.75
2024-03-24T23:44:56.632Z,91.41
2024-03-24T23:47:24.356Z,91.21
2024-03-24T23:49:52.619Z,91.57
2024-03-24T23:52:20.023Z,91.42
2024-03-24T23:54:48.040Z,91.39
2024-03-24T23:57:19.052Z,91.05
2024-03-24T23:59:46.698Z,91.23
